ESOW

Details ICAO ESOW (VST)
Name Vasteras
Region Sweden
Timezone Europe/Stockholm (UTC+1.0)
Plans Departing 48
Arriving 26
Stats Elevation 21 ft / 6 m (AMSL)
Location 59.589829° 16.633862°
Runways 1
Magnetic Variation 5.579° E
Sunrise 2017-12-14 07:47:07 UTC / 2017-12-14 08:47:07 Local
Sunset 2017-12-14 13:51:56 UTC / 2017-12-14 14:51:56 Local
Advertisement - Login to hide

Runways

ID Width Length Bearing (true) Bearing (mag) Surface Threshold Offset Overrun Length
01 151 ft / 46 m 8,454 ft / 2,577 m 11.62° 6.04° Asphalt 1,309 ft / 399 m 0 ft / 0 m
19 151 ft / 46 m 8,454 ft / 2,577 m 191.63° 186.05° Asphalt 0 ft / 0 m 0 ft / 0 m

Approach Navaids

Runway Type Ident Frequency Range Bearing (true) Bearing (mag) Slope Elevation
19 Localiser SCD 108.30 MHz 18 nm / 33 km 191.65° 186.07° - 21 ft / 6 m (AMSL)
19 Glidescope SCD 108.30 MHz 10 nm / 19 km 191.63° 186.05° 3.25° 21 ft / 6 m (AMSL)
19 DME SCD 108.30 MHz 18 nm / 33 km - - - 38 ft / 12 m (AMSL)

Map

Weather


0- 5 10 15 20 25 30 35+ Temperature / ° C

Clouds and Precipitation
Forecast for 2017-12-14 06:00 UTC. Updated an hour ago

Ground ~20,000 ft ~40,000 ft Winds

METAR

ESOW 140420Z AUTO 13009KT 7000 -RA FEW005/// SCT009/// BKN010/// 01/00 Q0986

TAF

Not found

Frequencies

Tower 130.60 MHz TWR
Approach 125.95 MHz CON
Warning: Do not use this data for real-world aviation or navigation. No guarantee of current accuracy is given.